Alexander von Humboldt II — DDKK2 — position and weather

sailwx.info

Track history (hours):
 
Tides and Currents Weather Stations Pressure Air Temp Water Temp Dewpoint Dewpoint Depression Visibility Wind Speed Wind Dir Waves Ship Positions

Alexander von Humboldt II

Ship's website: https://www.alex-2.de/en/

Last reported at 2017-Feb-22 04:18 UTC. Time now 2017-Feb-22 17:31 UTC.
Position N 15°26' W 061°41'.

Length 65 m; draft 4.7 m.

Type: Sailing vessel. MMSI: 218768000.

Date/timePositionNaut miles runAvg speedWind from/ knotsBaromVisibWave heightAir tempDewpointWater temp
2017-Feb-22 04:18N 15°26' W 061°41'3 4.2
2017-Feb-22 03:33N 15°30' W 061°41'5 4.1
2017-Feb-22 02:22N 15°34' W 061°40'7 3.9
2017-Feb-22 00:32N 15°41' W 061°39'4 3.9
2017-Feb-21 23:33N 15°45' W 061°39'5 4.0
2017-Feb-21 22:23N 15°46' W 061°34'14 1.9
2017-Feb-21 15:12N 15°54' W 061°23'3 4.5
2017-Feb-21 14:33N 15°57' W 061°21'2 1.6
2017-Feb-21 13:33N 15°58' W 061°20'0 0.1
2017-Feb-21 10:17N 15°57' W 061°20'0 0.0
2017-Feb-21 09:23N 15°57' W 061°20'16 0.8
2017-Feb-20 14:24N 15°53' W 061°35'8 0.3
2017-Feb-19 14:10N 15°55' W 061°43'3 4.3
2017-Feb-19 13:23N 15°57' W 061°46'31 4.9
2017-Feb-19 07:05N 16°18' W 062°09'7 4.9
2017-Feb-19 05:33N 16°25' W 062°13'5 4.5
2017-Feb-19 04:33N 16°29' W 062°15'5 5.4
2017-Feb-19 03:33N 16°34' W 062°17'5 5.1
2017-Feb-19 02:32N 16°39' W 062°19'4 3.7
2017-Feb-19 01:34N 16°42' W 062°21'3 3.1
2017-Feb-19 00:33N 16°45' W 062°22'5 2.6
2017-Feb-18 22:32N 16°50' W 062°22'6 6.5
2017-Feb-18 21:33N 16°45' W 062°19'4 4.4
2017-Feb-18 20:33N 16°42' W 062°16'2 2.0
2017-Feb-18 19:33N 16°41' W 062°14'7 6.8
2017-Feb-18 18:33N 16°35' W 062°10'7 7.1
2017-Feb-18 17:34N 16°29' W 062°06'5 5.4
2017-Feb-18 16:34N 16°25' W 062°02'1 1.1
2017-Feb-18 15:33N 16°25' W 062°01'3 3.4
2017-Feb-18 14:33N 16°29' W 062°01'5 4.6
2017-Feb-18 13:34N 16°33' W 061°60'6 5.8
2017-Feb-18 12:34N 16°39' W 062°01'6 5.8
2017-Feb-18 11:34N 16°45' W 062°02'5 5.2
2017-Feb-18 10:34N 16°50' W 062°02'5 4.8
2017-Feb-18 09:33N 16°55' W 062°02'4 4.4
2017-Feb-18 08:33N 16°59' W 062°02'3 3.4
2017-Feb-18 07:33N 17°03' W 062°03'3 3.1
2017-Feb-18 06:33N 17°06' W 062°03'5 4.5
2017-Feb-18 05:33N 17°10' W 062°04'4 4.0
2017-Feb-18 04:33N 17°14' W 062°04'4 3.7
2017-Feb-18 03:34N 17°18' W 062°05'4 3.7
2017-Feb-18 02:33N 17°21' W 062°06'4 3.7
2017-Feb-18 01:33N 17°25' W 062°07'4 3.8
2017-Feb-18 00:33N 17°29' W 062°08'5 4.7
2017-Feb-17 23:34N 17°33' W 062°08'4 4.3
2017-Feb-17 22:33N 17°38' W 062°08'4 4.4
2017-Feb-17 21:33N 17°42' W 062°07'10 4.2
2017-Feb-17 19:14N 17°52' W 062°07'3 3.7
2017-Feb-17 18:30N 17°54' W 062°06'3 3.0
2017-Feb-17 17:28N 17°57' W 062°04'11 2.1
2017-Feb-17 12:18N 18°06' W 061°58'53 4.8
2017-Feb-17 01:25N 18°09' W 062°53'12 5.2
2017-Feb-16 23:04N 18°07' W 063°06'2 4.7
2017-Feb-16 22:32N 18°05' W 063°06'0 0.0
2017-Feb-16 21:32N 18°05' W 063°06'0 0.0
2017-Feb-16 20:23N 18°05' W 063°06'0 0.0
2017-Feb-16 19:23N 18°05' W 063°06'0 0.0
2017-Feb-16 18:26N 18°05' W 063°06'0 0.0
2017-Feb-16 17:26N 18°05' W 063°06'0 0.0
2017-Feb-16 16:26N 18°05' W 063°06'0 0.0
2017-Feb-16 15:29N 18°05' W 063°06'0 0.0
2017-Feb-16 14:26N 18°05' W 063°06'0 0.0
2017-Feb-16 13:32N 18°05' W 063°06'0 0.0
2017-Feb-16 12:32N 18°05' W 063°06'0 0.0
2017-Feb-16 11:32N 18°05' W 063°06'0 0.0
2017-Feb-16 10:32N 18°05' W 063°06'0 0.0
2017-Feb-16 09:17N 18°05' W 063°06'0 0.0
2017-Feb-16 08:20N 18°05' W 063°06'0 0.0
2017-Feb-16 07:32N 18°05' W 063°06'0 0.0
2017-Feb-16 06:23N 18°05' W 063°06'0 0.0
2017-Feb-16 05:26N 18°05' W 063°06'0 0.0
2017-Feb-16 04:11N 18°05' W 063°06'0 0.0
2017-Feb-16 03:26N 18°05' W 063°06'0 0.0
2017-Feb-16 02:29N 18°05' W 063°06'0 0.0
2017-Feb-16 01:29N 18°05' W 063°06'0 0.0
2017-Feb-16 00:29N 18°05' W 063°06'0 0.0
2017-Feb-15 23:32N 18°05' W 063°06'0 0.0
2017-Feb-15 22:22N 18°05' W 063°06'1 1.4
2017-Feb-15 21:30N 18°05' W 063°05'0 0.0
2017-Feb-15 20:30N 18°05' W 063°05'0 0.0
2017-Feb-15 19:32N 18°05' W 063°05'0 0.0
2017-Feb-15 18:30N 18°05' W 063°05'0 0.0
2017-Feb-15 17:32N 18°05' W 063°05'0 0.0
2017-Feb-15 16:21N 18°05' W 063°05'0 0.0
2017-Feb-15 15:31N 18°05' W 063°05'1 1.1
2017-Feb-15 14:26N 18°05' W 063°06'0 0.0
2017-Feb-15 13:26N 18°05' W 063°06'0 0.0
2017-Feb-15 12:29N 18°05' W 063°06'0 0.0
2017-Feb-15 11:29N 18°05' W 063°06'0 0.0
2017-Feb-15 10:26N 18°05' W 063°06'0 0.0
2017-Feb-15 09:32N 18°05' W 063°06'0 0.0
2017-Feb-15 08:32N 18°05' W 063°06'0 0.0
2017-Feb-15 07:32N 18°05' W 063°06'0 0.0
2017-Feb-15 06:20N 18°05' W 063°06'0 0.0
2017-Feb-15 05:32N 18°05' W 063°06'0 0.0
2017-Feb-15 04:32N 18°05' W 063°06'0 0.0
2017-Feb-15 03:23N 18°05' W 063°06'0 0.0
2017-Feb-15 02:23N 18°05' W 063°06'0 0.0
2017-Feb-15 01:23N 18°05' W 063°06'0 0.0
2017-Feb-15 00:26N 18°05' W 063°06'0 0.0
2017-Feb-14 23:29N 18°05' W 063°06'0 0.0
2017-Feb-14 22:29N 18°05' W 063°06'1 0.6
2017-Feb-14 21:31N 18°05' W 063°07'3 2.6
2017-Feb-14 20:13N 18°02' W 063°08'1 1.4
2017-Feb-14 19:32N 18°01' W 063°08'1 1.1
2017-Feb-14 18:32N 18°01' W 063°07'1 0.8
2017-Feb-14 17:31N 18°00' W 063°06'2 1.8
2017-Feb-14 16:23N 17°58' W 063°05'1 0.7
2017-Feb-14 15:23N 17°58' W 063°04'2 1.0
2017-Feb-14 13:32N 17°58' W 063°02'1 1.5
2017-Feb-14 12:33N 17°58' W 063°01'8 5.0
2017-Feb-14 11:00N 17°54' W 062°54'6 3.0 090 / 71016.027.0 26.019.426.5
2017-Feb-14 09:00N 18°00' W 062°54'   1014.027.0 26.020.227.0
Track history (hours):
 
Tides and Currents Weather Stations Pressure Air Temp Water Temp Dewpoint Dewpoint Depression Visibility Wind Speed Wind Dir Waves Ship Positions

Alexander von Humboldt II

Ship's website: https://www.alex-2.de/en/

Last reported at 2017-Feb-22 04:18 UTC. Time now 2017-Feb-22 17:31 UTC.
Position N 15°26' W 061°41'.

Length 65 m; draft 4.7 m.

Type: Sailing vessel. MMSI: 218768000.

Date/timePositionNaut miles runAvg speedWind from/ knotsBaromVisibWave heightAir tempDewpointWater temp
2017-Feb-22 04:18N 15°26' W 061°41'3 4.2
2017-Feb-22 03:33N 15°30' W 061°41'5 4.1
2017-Feb-22 02:22N 15°34' W 061°40'7 3.9
2017-Feb-22 00:32N 15°41' W 061°39'4 3.9
2017-Feb-21 23:33N 15°45' W 061°39'5 4.0
2017-Feb-21 22:23N 15°46' W 061°34'14 1.9
2017-Feb-21 15:12N 15°54' W 061°23'3 4.5
2017-Feb-21 14:33N 15°57' W 061°21'2 1.6
2017-Feb-21 13:33N 15°58' W 061°20'0 0.1
2017-Feb-21 10:17N 15°57' W 061°20'0 0.0
2017-Feb-21 09:23N 15°57' W 061°20'16 0.8
2017-Feb-20 14:24N 15°53' W 061°35'8 0.3
2017-Feb-19 14:10N 15°55' W 061°43'3 4.3
2017-Feb-19 13:23N 15°57' W 061°46'31 4.9
2017-Feb-19 07:05N 16°18' W 062°09'7 4.9
2017-Feb-19 05:33N 16°25' W 062°13'5 4.5
2017-Feb-19 04:33N 16°29' W 062°15'5 5.4
2017-Feb-19 03:33N 16°34' W 062°17'5 5.1
2017-Feb-19 02:32N 16°39' W 062°19'4 3.7
2017-Feb-19 01:34N 16°42' W 062°21'3 3.1
2017-Feb-19 00:33N 16°45' W 062°22'5 2.6
2017-Feb-18 22:32N 16°50' W 062°22'6 6.5
2017-Feb-18 21:33N 16°45' W 062°19'4 4.4
2017-Feb-18 20:33N 16°42' W 062°16'2 2.0
2017-Feb-18 19:33N 16°41' W 062°14'7 6.8
2017-Feb-18 18:33N 16°35' W 062°10'7 7.1
2017-Feb-18 17:34N 16°29' W 062°06'5 5.4
2017-Feb-18 16:34N 16°25' W 062°02'1 1.1
2017-Feb-18 15:33N 16°25' W 062°01'3 3.4
2017-Feb-18 14:33N 16°29' W 062°01'5 4.6
2017-Feb-18 13:34N 16°33' W 061°60'6 5.8
2017-Feb-18 12:34N 16°39' W 062°01'6 5.8
2017-Feb-18 11:34N 16°45' W 062°02'5 5.2
2017-Feb-18 10:34N 16°50' W 062°02'5 4.8
2017-Feb-18 09:33N 16°55' W 062°02'4 4.4
2017-Feb-18 08:33N 16°59' W 062°02'3 3.4
2017-Feb-18 07:33N 17°03' W 062°03'3 3.1
2017-Feb-18 06:33N 17°06' W 062°03'5 4.5
2017-Feb-18 05:33N 17°10' W 062°04'4 4.0
2017-Feb-18 04:33N 17°14' W 062°04'4 3.7
2017-Feb-18 03:34N 17°18' W 062°05'4 3.7
2017-Feb-18 02:33N 17°21' W 062°06'4 3.7
2017-Feb-18 01:33N 17°25' W 062°07'4 3.8
2017-Feb-18 00:33N 17°29' W 062°08'5 4.7
2017-Feb-17 23:34N 17°33' W 062°08'4 4.3
2017-Feb-17 22:33N 17°38' W 062°08'4 4.4
2017-Feb-17 21:33N 17°42' W 062°07'10 4.2
2017-Feb-17 19:14N 17°52' W 062°07'3 3.7
2017-Feb-17 18:30N 17°54' W 062°06'3 3.0
2017-Feb-17 17:28N 17°57' W 062°04'11 2.1
2017-Feb-17 12:18N 18°06' W 061°58'53 4.8
2017-Feb-17 01:25N 18°09' W 062°53'12 5.2
2017-Feb-16 23:04N 18°07' W 063°06'2 4.7
2017-Feb-16 22:32N 18°05' W 063°06'0 0.0
2017-Feb-16 21:32N 18°05' W 063°06'0 0.0
2017-Feb-16 20:23N 18°05' W 063°06'0 0.0
2017-Feb-16 19:23N 18°05' W 063°06'0 0.0
2017-Feb-16 18:26N 18°05' W 063°06'0 0.0
2017-Feb-16 17:26N 18°05' W 063°06'0 0.0
2017-Feb-16 16:26N 18°05' W 063°06'0 0.0
2017-Feb-16 15:29N 18°05' W 063°06'0 0.0
2017-Feb-16 14:26N 18°05' W 063°06'0 0.0
2017-Feb-16 13:32N 18°05' W 063°06'0 0.0
2017-Feb-16 12:32N 18°05' W 063°06'0 0.0
2017-Feb-16 11:32N 18°05' W 063°06'0 0.0
2017-Feb-16 10:32N 18°05' W 063°06'0 0.0
2017-Feb-16 09:17N 18°05' W 063°06'0 0.0
2017-Feb-16 08:20N 18°05' W 063°06'0 0.0
2017-Feb-16 07:32N 18°05' W 063°06'0 0.0
2017-Feb-16 06:23N 18°05' W 063°06'0 0.0
2017-Feb-16 05:26N 18°05' W 063°06'0 0.0
2017-Feb-16 04:11N 18°05' W 063°06'0 0.0
2017-Feb-16 03:26N 18°05' W 063°06'0 0.0
2017-Feb-16 02:29N 18°05' W 063°06'0 0.0
2017-Feb-16 01:29N 18°05' W 063°06'0 0.0
2017-Feb-16 00:29N 18°05' W 063°06'0 0.0
2017-Feb-15 23:32N 18°05' W 063°06'0 0.0
2017-Feb-15 22:22N 18°05' W 063°06'1 1.4
2017-Feb-15 21:30N 18°05' W 063°05'0 0.0
2017-Feb-15 20:30N 18°05' W 063°05'0 0.0
2017-Feb-15 19:32N 18°05' W 063°05'0 0.0
2017-Feb-15 18:30N 18°05' W 063°05'0 0.0
2017-Feb-15 17:32N 18°05' W 063°05'0 0.0
2017-Feb-15 16:21N 18°05' W 063°05'0 0.0
2017-Feb-15 15:31N 18°05' W 063°05'1 1.1
2017-Feb-15 14:26N 18°05' W 063°06'0 0.0
2017-Feb-15 13:26N 18°05' W 063°06'0 0.0
2017-Feb-15 12:29N 18°05' W 063°06'0 0.0
2017-Feb-15 11:29N 18°05' W 063°06'0 0.0
2017-Feb-15 10:26N 18°05' W 063°06'0 0.0
2017-Feb-15 09:32N 18°05' W 063°06'0 0.0
2017-Feb-15 08:32N 18°05' W 063°06'0 0.0
2017-Feb-15 07:32N 18°05' W 063°06'0 0.0
2017-Feb-15 06:20N 18°05' W 063°06'0 0.0
2017-Feb-15 05:32N 18°05' W 063°06'0 0.0
2017-Feb-15 04:32N 18°05' W 063°06'0 0.0
2017-Feb-15 03:23N 18°05' W 063°06'0 0.0
2017-Feb-15 02:23N 18°05' W 063°06'0 0.0
2017-Feb-15 01:23N 18°05' W 063°06'0 0.0
2017-Feb-15 00:26N 18°05' W 063°06'0 0.0
2017-Feb-14 23:29N 18°05' W 063°06'0 0.0
2017-Feb-14 22:29N 18°05' W 063°06'1 0.6
2017-Feb-14 21:31N 18°05' W 063°07'3 2.6
2017-Feb-14 20:13N 18°02' W 063°08'1 1.4
2017-Feb-14 19:32N 18°01' W 063°08'1 1.1
2017-Feb-14 18:32N 18°01' W 063°07'1 0.8
2017-Feb-14 17:31N 18°00' W 063°06'2 1.8
2017-Feb-14 16:23N 17°58' W 063°05'1 0.7
2017-Feb-14 15:23N 17°58' W 063°04'2 1.0
2017-Feb-14 13:32N 17°58' W 063°02'1 1.5
2017-Feb-14 12:33N 17°58' W 063°01'8 5.0
2017-Feb-14 11:00N 17°54' W 062°54'6 3.0 090 / 71016.027.0 26.019.426.5
2017-Feb-14 09:00N 18°00' W 062°54'   1014.027.0 26.020.227.0

Dump ship's entire track history